createdAt,value
2022-09-15T00:02:25.908Z,2.60
2022-09-15T00:04:52.455Z,2.20
2022-09-15T00:07:18.963Z,2.33
2022-09-15T00:09:45.454Z,2.42
2022-09-15T00:12:11.942Z,2.38
2022-09-15T00:14:38.575Z,2.45
2022-09-15T00:17:05.297Z,2.50
2022-09-15T00:19:31.854Z,2.47
2022-09-15T00:21:58.321Z,2.35
2022-09-15T00:24:24.870Z,2.30
2022-09-15T00:26:51.335Z,2.25
2022-09-15T00:29:17.833Z,2.20
2022-09-15T00:31:44.320Z,2.20
2022-09-15T00:34:13.346Z,2.10
2022-09-15T00:36:40.265Z,2.30
2022-09-15T00:39:06.829Z,2.08
2022-09-15T00:41:33.639Z,2.22
2022-09-15T00:44:16.796Z,2.58
2022-09-15T00:46:58.715Z,2.20
2022-09-15T00:49:34.755Z,2.10
2022-09-15T00:52:15.746Z,1.98
2022-09-15T00:54:52.288Z,2.70
2022-09-15T00:57:27.866Z,2.08
2022-09-15T00:59:57.062Z,2.10
2022-09-15T01:02:27.974Z,1.88
2022-09-15T01:04:58.501Z,2.50
2022-09-15T01:07:32.179Z,2.30
2022-09-15T01:10:11.723Z,2.20
2022-09-15T01:12:40.217Z,2.08
2022-09-15T01:15:07.178Z,2.10
2022-09-15T01:18:04.187Z,2.03
2022-09-15T01:20:54.759Z,1.80
2022-09-15T01:23:48.727Z,2.00
2022-09-15T01:29:20.447Z,1.80
2022-09-15T01:32:19.108Z,1.58
2022-09-15T01:35:01.627Z,2.05
2022-09-15T01:37:33.489Z,1.90
2022-09-15T01:40:01.593Z,2.13
2022-09-15T01:42:30.507Z,1.85
2022-09-15T01:45:15.234Z,2.20
2022-09-15T01:47:41.942Z,2.00
2022-09-15T01:50:08.800Z,1.88
2022-09-15T01:52:36.405Z,2.17
2022-09-15T01:55:10.951Z,2.10
2022-09-15T01:57:37.456Z,2.10
2022-09-15T02:00:05.366Z,2.10
2022-09-15T02:02:37.827Z,2.10
2022-09-15T02:05:19.763Z,2.22
2022-09-15T02:08:05.047Z,2.20
2022-09-15T02:10:43.855Z,2.20
2022-09-15T02:13:18.773Z,1.70
2022-09-15T02:15:51.530Z,2.38
2022-09-15T02:18:25.426Z,2.13
2022-09-15T02:21:00.753Z,2.05
2022-09-15T02:23:31.404Z,2.17
2022-09-15T02:26:04.982Z,2.03
2022-09-15T02:28:35.976Z,1.90
2022-09-15T02:31:07.070Z,1.98
2022-09-15T02:33:39.159Z,2.03
2022-09-15T02:36:06.992Z,2.03
2022-09-15T02:38:37.271Z,1.90
2022-09-15T02:41:03.857Z,2.00
2022-09-15T02:43:31.266Z,1.92
2022-09-15T02:45:58.058Z,1.83
2022-09-15T02:48:25.307Z,1.90
2022-09-15T02:50:52.029Z,1.80
2022-09-15T02:53:18.517Z,1.95
2022-09-15T02:55:45.007Z,1.70
2022-09-15T02:58:11.478Z,2.13
2022-09-15T03:00:39.143Z,1.88
2022-09-15T03:03:05.638Z,2.08
2022-09-15T03:05:32.106Z,1.80
2022-09-15T03:07:58.618Z,1.90
2022-09-15T03:10:26.023Z,2.15
2022-09-15T03:12:54.460Z,2.00
2022-09-15T03:15:24.121Z,2.08
2022-09-15T03:17:51.731Z,1.80
2022-09-15T03:20:21.482Z,1.80
2022-09-15T03:22:49.570Z,1.80
2022-09-15T03:25:17.678Z,2.05
2022-09-15T03:27:44.410Z,2.05
2022-09-15T03:30:11.979Z,1.67
2022-09-15T03:32:38.583Z,1.90
2022-09-15T03:35:06.994Z,1.70
2022-09-15T03:37:33.855Z,1.65
2022-09-15T03:40:00.423Z,1.70
2022-09-15T03:42:27.170Z,1.95
2022-09-15T03:44:53.699Z,1.65
2022-09-15T03:47:20.233Z,1.60
2022-09-15T03:49:46.693Z,1.80
2022-09-15T03:52:13.231Z,1.60
2022-09-15T03:54:40.090Z,1.75
2022-09-15T03:57:06.677Z,1.60
2022-09-15T03:59:33.312Z,1.55
2022-09-15T04:01:59.847Z,1.73
2022-09-15T04:04:26.550Z,1.70
2022-09-15T04:06:53.210Z,1.60
2022-09-15T04:09:21.081Z,1.50
2022-09-15T04:11:47.829Z,1.80
2022-09-15T04:14:14.498Z,1.77
2022-09-15T04:16:41.139Z,1.67
2022-09-15T04:19:07.758Z,1.55
2022-09-15T04:21:34.707Z,1.55
2022-09-15T04:24:01.437Z,1.67
2022-09-15T04:26:31.661Z,1.65
2022-09-15T04:29:03.619Z,1.70
2022-09-15T04:31:31.038Z,1.50
2022-09-15T04:33:57.733Z,1.70
2022-09-15T04:36:26.861Z,1.65
2022-09-15T04:38:53.376Z,1.77
2022-09-15T04:41:20.869Z,1.77
2022-09-15T04:43:47.404Z,2.00
2022-09-15T04:46:15.097Z,1.63
2022-09-15T04:48:42.337Z,1.60
2022-09-15T04:51:12.868Z,1.45
2022-09-15T04:53:39.603Z,1.50
2022-09-15T04:56:08.765Z,1.70
2022-09-15T04:58:40.526Z,1.55
2022-09-15T05:01:09.252Z,1.55
2022-09-15T05:03:37.638Z,1.60
2022-09-15T05:06:05.997Z,1.50
2022-09-15T05:08:32.533Z,1.50
2022-09-15T05:11:01.297Z,1.48
2022-09-15T05:13:27.925Z,1.42
2022-09-15T05:15:54.518Z,1.50
2022-09-15T05:18:21.144Z,1.30
2022-09-15T05:20:47.643Z,1.60
2022-09-15T05:23:14.092Z,1.30
2022-09-15T05:25:40.535Z,1.40
2022-09-15T05:28:07.713Z,1.40
2022-09-15T05:30:41.440Z,1.73
2022-09-15T05:33:10.156Z,1.38
2022-09-15T05:35:36.627Z,1.50
2022-09-15T05:38:03.489Z,1.50
2022-09-15T05:40:30.000Z,1.23
2022-09-15T05:42:56.499Z,1.35
2022-09-15T05:45:22.983Z,1.50
2022-09-15T05:47:49.594Z,1.42
2022-09-15T05:50:16.277Z,1.30
2022-09-15T05:52:43.042Z,1.30
2022-09-15T05:55:10.059Z,1.40
2022-09-15T05:57:36.503Z,1.50
2022-09-15T06:00:04.726Z,1.40
2022-09-15T06:02:38.469Z,1.33
2022-09-15T06:05:05.374Z,1.42
2022-09-15T06:07:31.811Z,1.50
2022-09-15T06:09:58.337Z,1.30
2022-09-15T06:12:24.824Z,1.27
2022-09-15T06:14:52.839Z,1.35
2022-09-15T06:17:20.698Z,1.30
2022-09-15T06:19:47.152Z,1.35
2022-09-15T06:22:13.601Z,1.25
2022-09-15T06:24:40.135Z,1.30
2022-09-15T06:27:07.738Z,1.20
2022-09-15T06:29:34.362Z,1.50
2022-09-15T06:32:02.820Z,1.20
2022-09-15T06:34:29.783Z,1.40
2022-09-15T06:36:56.242Z,1.40
2022-09-15T06:39:22.921Z,1.50
2022-09-15T06:42:02.184Z,1.25
2022-09-15T06:44:29.208Z,1.50
2022-09-15T06:46:55.668Z,1.30
2022-09-15T06:49:22.295Z,1.20
2022-09-15T06:51:51.662Z,1.20
2022-09-15T06:54:18.188Z,1.40
2022-09-15T06:56:44.955Z,1.20
2022-09-15T06:59:12.727Z,1.25
2022-09-15T07:01:39.501Z,1.23
2022-09-15T07:04:08.895Z,1.40
2022-09-15T07:06:37.479Z,1.20
2022-09-15T07:09:05.451Z,1.20
2022-09-15T07:11:33.105Z,1.20
2022-09-15T07:13:59.659Z,1.15
2022-09-15T07:16:26.371Z,1.40
2022-09-15T07:18:55.950Z,1.40
2022-09-15T07:21:23.292Z,1.35
2022-09-15T07:23:49.826Z,1.38
2022-09-15T07:26:19.497Z,1.27
2022-09-15T07:28:53.573Z,1.33
2022-09-15T07:31:22.244Z,1.27
2022-09-15T07:33:49.307Z,1.38
2022-09-15T07:36:16.519Z,1.27
2022-09-15T07:38:50.781Z,1.48
2022-09-15T07:41:23.193Z,1.60
2022-09-15T07:43:51.744Z,1.40
2022-09-15T07:46:19.251Z,1.30
2022-09-15T07:48:48.150Z,1.50
2022-09-15T07:51:15.936Z,1.33
2022-09-15T07:53:44.382Z,1.30
2022-09-15T07:56:11.517Z,1.25
2022-09-15T07:58:38.041Z,1.33
2022-09-15T08:01:06.576Z,1.45
2022-09-15T08:03:33.456Z,1.50
2022-09-15T08:06:02.110Z,1.25
2022-09-15T08:08:29.569Z,1.48
2022-09-15T08:10:56.305Z,1.27
2022-09-15T08:13:23.111Z,1.40
2022-09-15T08:15:49.863Z,1.35
2022-09-15T08:18:16.608Z,1.42
2022-09-15T08:20:44.006Z,1.30
2022-09-15T08:23:11.591Z,1.40
2022-09-15T08:25:39.461Z,1.45
2022-09-15T08:28:06.068Z,1.20
2022-09-15T08:30:32.631Z,1.30
2022-09-15T08:32:59.119Z,1.30
2022-09-15T08:35:25.648Z,1.40
2022-09-15T08:37:54.127Z,1.20
2022-09-15T08:40:23.481Z,1.40
2022-09-15T08:42:53.749Z,1.40
2022-09-15T08:45:25.540Z,1.50
2022-09-15T08:47:58.599Z,1.40
2022-09-15T08:50:34.002Z,1.42
2022-09-15T08:53:09.639Z,1.20
2022-09-15T08:55:53.743Z,1.20
2022-09-15T08:58:22.745Z,1.25
2022-09-15T09:00:52.081Z,1.10
2022-09-15T09:03:38.415Z,1.17
2022-09-15T09:06:23.432Z,0.90
2022-09-15T09:09:02.522Z,1.25
2022-09-15T09:11:28.959Z,1.30
2022-09-15T09:14:05.935Z,1.10
2022-09-15T09:16:52.762Z,1.30
2022-09-15T09:19:46.368Z,1.20
2022-09-15T09:22:20.354Z,1.35
2022-09-15T09:24:50.398Z,1.15
2022-09-15T09:27:20.488Z,1.13
2022-09-15T09:30:14.280Z,1.08
2022-09-15T09:32:50.274Z,1.10
2022-09-15T09:35:47.154Z,1.20
2022-09-15T09:38:21.518Z,1.10
2022-09-15T09:40:49.412Z,1.20
2022-09-15T09:43:16.023Z,1.05
2022-09-15T09:45:42.836Z,1.20
2022-09-15T09:48:18.654Z,1.20
2022-09-15T09:50:45.283Z,1.20
2022-09-15T09:53:29.046Z,1.40
2022-09-15T09:56:16.038Z,1.27
2022-09-15T09:58:43.367Z,1.10
2022-09-15T10:01:18.602Z,1.20
2022-09-15T10:03:45.421Z,1.08
2022-09-15T10:06:15.670Z,1.15
2022-09-15T10:09:18.366Z,1.10
2022-09-15T10:11:48.556Z,1.20
2022-09-15T10:14:37.371Z,1.30
2022-09-15T10:17:09.891Z,1.10
2022-09-15T10:19:46.711Z,1.10
2022-09-15T10:22:35.785Z,1.23
2022-09-15T10:25:39.562Z,1.10
2022-09-15T10:28:16.899Z,1.20
2022-09-15T10:31:06.499Z,1.20
2022-09-15T10:33:35.493Z,1.00
2022-09-15T10:36:06.098Z,1.10
2022-09-15T10:38:48.689Z,1.10
2022-09-15T10:41:32.234Z,1.40
2022-09-15T10:46:41.022Z,1.15
2022-09-15T10:49:44.578Z,1.20
2022-09-15T10:52:32.923Z,1.08
2022-09-15T10:55:15.144Z,1.10
2022-09-15T10:57:59.717Z,1.20
2022-09-15T11:00:34.059Z,1.13
2022-09-15T11:03:38.761Z,1.20
2022-09-15T11:06:36.534Z,1.10
2022-09-15T11:09:21.599Z,1.10
2022-09-15T11:12:09.319Z,1.20
2022-09-15T11:14:48.809Z,1.20
2022-09-15T11:17:24.062Z,1.30
2022-09-15T11:20:03.167Z,1.38
2022-09-15T11:22:51.859Z,1.30
2022-09-15T11:25:25.345Z,1.10
2022-09-15T11:28:06.637Z,1.38
2022-09-15T11:30:42.449Z,1.30
2022-09-15T11:33:32.786Z,1.30
2022-09-15T11:36:13.141Z,1.33
2022-09-15T11:38:52.898Z,1.40
2022-09-15T11:41:26.542Z,1.25
2022-09-15T11:44:17.055Z,1.30
2022-09-15T11:46:58.785Z,1.67
2022-09-15T11:49:40.630Z,1.33
2022-09-15T11:52:32.613Z,1.38
2022-09-15T11:55:16.927Z,1.40
2022-09-15T11:57:54.243Z,2.00
2022-09-15T12:00:21.437Z,2.67
2022-09-15T12:03:00.245Z,2.15
2022-09-15T12:05:34.608Z,2.00
2022-09-15T12:08:10.117Z,1.80
2022-09-15T12:10:45.970Z,1.80
2022-09-15T12:13:20.956Z,1.60
2022-09-15T12:15:48.819Z,1.67
2022-09-15T12:18:44.863Z,1.50
2022-09-15T12:21:19.650Z,1.80
2022-09-15T12:23:54.691Z,1.70
2022-09-15T12:26:23.347Z,1.63
2022-09-15T12:29:30.205Z,1.90
2022-09-15T12:32:21.581Z,1.80
2022-09-15T12:35:01.868Z,2.00
2022-09-15T12:38:03.915Z,1.90
2022-09-15T12:40:30.451Z,2.00
2022-09-15T12:42:57.608Z,1.90
2022-09-15T12:45:36.209Z,2.17
2022-09-15T12:48:10.642Z,1.90
2022-09-15T12:50:40.953Z,1.60
2022-09-15T12:53:18.356Z,1.77
2022-09-15T12:55:52.403Z,1.70
2022-09-15T12:58:47.832Z,1.50
2022-09-15T13:01:26.415Z,1.50
2022-09-15T13:03:57.765Z,1.60
2022-09-15T13:06:26.658Z,1.40
2022-09-15T13:09:02.342Z,1.48
2022-09-15T13:11:40.098Z,1.60
2022-09-15T13:14:14.695Z,1.35
2022-09-15T13:16:41.155Z,1.40
2022-09-15T13:19:16.420Z,1.50
2022-09-15T13:22:03.309Z,1.33
2022-09-15T13:24:42.116Z,1.40
2022-09-15T13:27:09.151Z,1.30
2022-09-15T13:29:48.149Z,1.48
2022-09-15T13:32:32.956Z,1.48
2022-09-15T13:35:19.820Z,1.63
2022-09-15T13:38:17.105Z,1.50
2022-09-15T13:41:18.422Z,1.40
2022-09-15T13:44:06.841Z,1.60
2022-09-15T13:46:36.290Z,2.00
2022-09-15T13:49:18.189Z,1.73
2022-09-15T13:51:54.703Z,1.90
2022-09-15T13:54:21.342Z,2.30
2022-09-15T13:56:49.101Z,2.03
2022-09-15T13:59:24.901Z,1.83
2022-09-15T14:01:52.999Z,1.67
2022-09-15T14:04:24.375Z,2.50
2022-09-15T14:06:57.183Z,2.20
2022-09-15T14:09:33.336Z,2.35
2022-09-15T14:12:03.876Z,1.20
2022-09-15T14:14:53.773Z,1.25
2022-09-15T14:17:23.995Z,1.10
2022-09-15T14:19:53.449Z,1.00
2022-09-15T14:22:26.286Z,0.90
2022-09-15T14:24:54.064Z,1.00
2022-09-15T14:27:32.865Z,0.98
2022-09-15T14:30:04.334Z,0.90
2022-09-15T14:32:34.427Z,0.77
2022-09-15T14:35:05.570Z,0.82
2022-09-15T14:37:32.607Z,0.90
2022-09-15T14:40:01.561Z,0.80
2022-09-15T14:42:32.416Z,0.88
2022-09-15T14:48:01.579Z,1.35
2022-09-15T14:50:32.843Z,2.10
2022-09-15T14:53:06.589Z,2.60
2022-09-15T14:55:36.055Z,3.50
2022-09-15T14:58:15.107Z,3.20
2022-09-15T15:00:49.122Z,3.40
2022-09-15T15:03:27.540Z,3.20
2022-09-15T15:06:28.349Z,3.53
2022-09-15T15:09:06.439Z,4.10
2022-09-15T15:11:34.916Z,4.15
2022-09-15T15:14:05.759Z,4.22
2022-09-15T15:16:32.818Z,4.13
2022-09-15T15:18:59.717Z,4.05
2022-09-15T15:21:38.879Z,4.32
2022-09-15T15:24:20.299Z,4.40
2022-09-15T15:26:49.753Z,4.93
2022-09-15T15:29:47.016Z,4.97
2022-09-15T15:32:16.313Z,4.85
2022-09-15T15:34:57.997Z,4.72
2022-09-15T15:37:29.791Z,5.30
2022-09-15T15:39:58.233Z,4.32
2022-09-15T15:42:26.184Z,5.65
2022-09-15T15:44:59.818Z,4.75
2022-09-15T15:47:30.562Z,4.70
2022-09-15T15:50:13.408Z,4.95
2022-09-15T15:52:41.559Z,4.70
2022-09-15T15:55:08.661Z,4.97
2022-09-15T15:57:38.266Z,4.07
2022-09-15T16:00:20.435Z,4.88
2022-09-15T16:02:48.069Z,4.20
2022-09-15T16:05:14.683Z,3.75
2022-09-15T16:07:44.103Z,3.30
2022-09-15T16:10:16.086Z,3.53
2022-09-15T16:12:42.951Z,3.60
2022-09-15T16:15:14.129Z,3.10
2022-09-15T16:17:46.033Z,3.03
2022-09-15T16:20:15.931Z,3.17
2022-09-15T16:22:43.325Z,3.13
2022-09-15T16:25:15.526Z,3.45
2022-09-15T16:27:41.991Z,3.42
2022-09-15T16:30:11.995Z,2.80
2022-09-15T16:32:40.086Z,3.35
2022-09-15T16:35:26.979Z,3.00
2022-09-15T16:37:53.703Z,2.85
2022-09-15T16:40:20.256Z,2.83
2022-09-15T16:42:47.934Z,2.90
2022-09-15T16:45:30.792Z,3.22
2022-09-15T16:47:58.818Z,3.43
2022-09-15T16:50:25.822Z,3.03
2022-09-15T16:52:52.931Z,3.40
2022-09-15T16:55:29.556Z,3.13
2022-09-15T16:57:56.162Z,3.30
2022-09-15T17:00:22.772Z,3.33
2022-09-15T17:02:49.640Z,3.80
2022-09-15T17:05:27.991Z,4.22
2022-09-15T17:07:55.006Z,3.42
2022-09-15T17:10:21.495Z,3.50
2022-09-15T17:12:48.335Z,3.78
2022-09-15T17:15:21.746Z,3.70
2022-09-15T17:17:48.631Z,3.35
2022-09-15T17:20:15.523Z,3.55
2022-09-15T17:22:42.039Z,2.95
2022-09-15T17:25:17.996Z,3.03
2022-09-15T17:27:44.556Z,3.42
2022-09-15T17:30:12.137Z,3.63
2022-09-15T17:32:38.994Z,3.13
2022-09-15T17:35:20.739Z,3.60
2022-09-15T17:37:47.673Z,3.58
2022-09-15T17:40:15.654Z,4.53
2022-09-15T17:42:43.008Z,3.50
2022-09-15T17:45:14.218Z,4.55
2022-09-15T17:47:40.634Z,4.18
2022-09-15T17:50:07.392Z,4.25
2022-09-15T17:52:33.863Z,3.45
2022-09-15T17:55:01.582Z,4.13
2022-09-15T17:57:28.050Z,3.90
2022-09-15T17:59:54.519Z,3.83
2022-09-15T18:02:21.390Z,5.00
2022-09-15T18:04:47.997Z,5.35
2022-09-15T18:07:14.483Z,4.90
2022-09-15T18:09:40.970Z,5.10
2022-09-15T18:12:09.943Z,5.15
2022-09-15T18:14:36.506Z,4.85
2022-09-15T18:17:03.138Z,5.10
2022-09-15T18:19:29.616Z,4.88
2022-09-15T18:21:56.170Z,4.90
2022-09-15T18:24:23.102Z,5.03
2022-09-15T18:26:49.801Z,4.82
2022-09-15T18:29:16.248Z,4.95
2022-09-15T18:31:44.841Z,5.18
2022-09-15T18:34:11.318Z,4.90
2022-09-15T18:36:37.757Z,6.03
2022-09-15T18:39:05.142Z,5.75
2022-09-15T18:41:31.770Z,5.20
2022-09-15T18:43:58.246Z,5.80
2022-09-15T18:46:24.917Z,6.45
2022-09-15T18:48:51.431Z,6.10
2022-09-15T18:51:24.076Z,6.57
2022-09-15T18:53:55.468Z,6.82
2022-09-15T18:56:21.936Z,4.72
2022-09-15T18:58:52.962Z,5.20
2022-09-15T19:01:19.944Z,6.03
2022-09-15T19:03:46.604Z,5.55
2022-09-15T19:06:13.244Z,6.50
2022-09-15T19:08:40.351Z,6.25
2022-09-15T19:11:07.075Z,7.00
2022-09-15T19:13:35.590Z,6.40
2022-09-15T19:16:04.148Z,7.25
2022-09-15T19:18:31.411Z,7.18
2022-09-15T19:21:06.267Z,6.10
2022-09-15T19:23:32.782Z,6.13
2022-09-15T19:26:02.845Z,5.70
2022-09-15T19:28:29.434Z,6.60
2022-09-15T19:30:55.952Z,6.15
2022-09-15T19:33:22.580Z,6.72
2022-09-15T19:35:59.960Z,5.70
2022-09-15T19:38:31.889Z,7.07
2022-09-15T19:41:04.090Z,7.43
2022-09-15T19:43:30.618Z,6.50
2022-09-15T19:45:57.190Z,7.38
2022-09-15T19:48:23.742Z,6.57
2022-09-15T19:50:50.241Z,7.55
2022-09-15T19:53:16.970Z,6.68
2022-09-15T19:55:49.367Z,7.30
2022-09-15T19:58:15.949Z,7.30
2022-09-15T20:00:42.597Z,7.07
2022-09-15T20:03:09.107Z,7.00
2022-09-15T20:05:35.566Z,7.25
2022-09-15T20:08:03.700Z,7.03
2022-09-15T20:10:30.182Z,7.00
2022-09-15T20:12:56.633Z,7.00
2022-09-15T20:15:23.118Z,6.57
2022-09-15T20:17:49.593Z,7.60
2022-09-15T20:20:16.254Z,7.40
2022-09-15T20:22:42.776Z,6.07
2022-09-15T20:25:09.278Z,7.50
2022-09-15T20:27:35.735Z,7.80
2022-09-15T20:30:02.751Z,6.20
2022-09-15T20:32:29.364Z,7.25
2022-09-15T20:34:55.851Z,6.60
2022-09-15T20:37:23.068Z,6.47
2022-09-15T20:39:51.251Z,6.90
2022-09-15T20:42:18.031Z,7.43
2022-09-15T20:44:44.581Z,7.50
2022-09-15T20:47:11.208Z,7.55
2022-09-15T20:49:37.635Z,7.50
2022-09-15T20:52:04.251Z,6.82
2022-09-15T20:54:30.704Z,6.47
2022-09-15T20:56:57.134Z,7.82
2022-09-15T20:59:23.624Z,7.70
2022-09-15T21:01:50.132Z,7.32
2022-09-15T21:04:16.610Z,6.70
2022-09-15T21:06:43.155Z,7.00
2022-09-15T21:09:09.723Z,8.00
2022-09-15T21:11:36.287Z,7.72
2022-09-15T21:14:03.360Z,7.40
2022-09-15T21:16:30.028Z,7.38
2022-09-15T21:18:58.631Z,6.80
2022-09-15T21:21:29.999Z,7.03
2022-09-15T21:24:03.803Z,7.43
2022-09-15T21:26:59.007Z,7.70
2022-09-15T21:29:27.654Z,7.85
2022-09-15T21:31:57.998Z,8.20
2022-09-15T21:34:24.642Z,7.28
2022-09-15T21:36:53.425Z,7.40
2022-09-15T21:39:23.053Z,7.75
2022-09-15T21:41:50.075Z,8.05
2022-09-15T21:44:16.590Z,8.10
2022-09-15T21:46:44.890Z,7.60
2022-09-15T21:49:11.367Z,7.72
2022-09-15T21:51:37.859Z,8.23
2022-09-15T21:54:04.940Z,8.38
2022-09-15T21:56:31.409Z,8.57
2022-09-15T21:58:57.984Z,8.68
2022-09-15T22:01:30.252Z,8.85
2022-09-15T22:04:00.850Z,8.82
2022-09-15T22:06:36.009Z,9.55
2022-09-15T22:09:06.224Z,9.45
2022-09-15T22:11:33.428Z,7.82
2022-09-15T22:14:01.931Z,8.60
2022-09-15T22:16:28.883Z,8.57
2022-09-15T22:18:55.555Z,8.77
2022-09-15T22:21:27.393Z,9.85
2022-09-15T22:23:56.315Z,9.65
2022-09-15T22:26:26.183Z,9.40
2022-09-15T22:28:53.624Z,8.95
2022-09-15T22:31:21.700Z,8.93
2022-09-15T22:33:48.224Z,8.07
2022-09-15T22:36:17.750Z,8.18
2022-09-15T22:38:44.766Z,8.60
2022-09-15T22:41:13.445Z,8.52
2022-09-15T22:43:41.874Z,7.93
2022-09-15T22:46:09.117Z,9.00
2022-09-15T22:48:40.936Z,9.15
2022-09-15T22:51:10.057Z,9.40
2022-09-15T22:53:36.628Z,8.00
2022-09-15T22:56:06.849Z,7.97
2022-09-15T22:58:34.597Z,9.88
2022-09-15T23:01:08.575Z,9.10
2022-09-15T23:03:36.048Z,9.40
2022-09-15T23:06:03.230Z,9.50
2022-09-15T23:08:30.342Z,9.75
2022-09-15T23:11:05.960Z,9.52
2022-09-15T23:13:33.170Z,8.68
2022-09-15T23:15:59.949Z,8.18
2022-09-15T23:18:27.267Z,8.43
2022-09-15T23:20:58.901Z,8.52
2022-09-15T23:23:25.954Z,8.93
2022-09-15T23:25:52.823Z,8.65
2022-09-15T23:28:19.438Z,10.40
2022-09-15T23:30:46.461Z,9.43
2022-09-15T23:33:12.950Z,8.90
2022-09-15T23:35:39.422Z,9.75
2022-09-15T23:38:06.117Z,10.63
2022-09-15T23:40:33.081Z,9.93
2022-09-15T23:42:59.632Z,9.52
2022-09-15T23:45:26.101Z,9.77
2022-09-15T23:47:52.579Z,8.38
2022-09-15T23:50:19.031Z,8.32
2022-09-15T23:52:45.486Z,7.57
2022-09-15T23:55:11.937Z,8.32
2022-09-15T23:57:38.385Z,8.93
